createdAt,value
2022-08-26T00:00:51.875Z,40.3
2022-08-26T00:01:55.862Z,43.2
2022-08-26T00:02:53.621Z,42
2022-08-26T00:03:54.128Z,30.1
2022-08-26T00:04:54.464Z,42.7
2022-08-26T00:05:54.888Z,40.1
2022-08-26T00:06:56.032Z,21.5
2022-08-26T00:07:56.012Z,25.4
2022-08-26T00:08:56.235Z,35.5
2022-08-26T00:09:56.871Z,24.6
2022-08-26T00:10:57.255Z,23.9
2022-08-26T00:11:57.568Z,17.2
2022-08-26T00:12:58.402Z,11.7
2022-08-26T00:13:58.716Z,13.9
2022-08-26T00:14:58.990Z,16.4
2022-08-26T00:15:59.758Z,14.7
2022-08-26T00:17:00.022Z,16.7
2022-08-26T00:18:00.274Z,15.3
2022-08-26T00:19:01.114Z,13.6
2022-08-26T00:20:01.737Z,11.4
2022-08-26T00:21:01.752Z,12.8
2022-08-26T00:22:04.516Z,14
2022-08-26T00:23:04.380Z,16
2022-08-26T00:24:05.328Z,14.6
2022-08-26T00:25:07.997Z,15.4
2022-08-26T00:26:07.093Z,12.8
2022-08-26T00:27:07.095Z,15.6
2022-08-26T00:28:07.815Z,14.2
2022-08-26T00:29:08.753Z,13.2
2022-08-26T00:30:12.144Z,20.2
2022-08-26T00:31:11.127Z,13.9
2022-08-26T00:32:10.243Z,13.5
2022-08-26T00:33:10.838Z,19
2022-08-26T00:34:11.230Z,15.2
2022-08-26T00:35:11.853Z,14.6
2022-08-26T00:36:19.888Z,18.4
2022-08-26T00:37:16.126Z,18.6
2022-08-26T00:38:14.645Z,12.2
2022-08-26T00:39:14.341Z,15.5
2022-08-26T00:41:19.717Z,16
2022-08-26T00:42:17.120Z,10.6
2022-08-26T00:43:18.262Z,13.6
2022-08-26T00:44:18.371Z,10.9
2022-08-26T00:45:19.003Z,13.9
2022-08-26T00:46:23.711Z,11.4
2022-08-26T00:47:27.713Z,19.4
2022-08-26T00:48:31.800Z,17.1
2022-08-26T00:50:31.217Z,18
2022-08-26T00:51:29.777Z,13.2
2022-08-26T00:52:30.497Z,9.8
2022-08-26T00:53:34.512Z,11.2
2022-08-26T00:54:38.305Z,14.8
2022-08-26T00:55:40.965Z,15.4
2022-08-26T00:57:43.741Z,14
2022-08-26T00:58:44.693Z,13.6
2022-08-26T00:59:48.368Z,17.9
2022-08-26T01:00:45.961Z,12.2
2022-08-26T01:01:46.915Z,12.2
2022-08-26T01:02:49.245Z,12.9
2022-08-26T01:03:48.402Z,12.2
2022-08-26T01:04:48.623Z,12.9
2022-08-26T01:05:55.376Z,12.2
2022-08-26T01:06:54.873Z,15.3
2022-08-26T01:07:53.843Z,12.6
2022-08-26T01:08:54.575Z,14.5
2022-08-26T01:09:55.706Z,14.1
2022-08-26T01:10:57.243Z,16.8
2022-08-26T01:11:57.349Z,16.8
2022-08-26T01:13:00.535Z,16.3
2022-08-26T01:14:00.643Z,17
2022-08-26T01:15:00.770Z,28.2
2022-08-26T01:16:04.944Z,19.7
2022-08-26T01:17:05.095Z,20.5
2022-08-26T01:18:06.503Z,21.1
2022-08-26T01:20:19.013Z,23.3
2022-08-26T01:23:18.642Z,25.7
2022-08-26T01:24:19.854Z,24.9
2022-08-26T01:25:21.393Z,18.2
2022-08-26T01:27:22.030Z,21.4
2022-08-26T01:29:26.043Z,20.6
2022-08-26T01:30:27.891Z,24.5
2022-08-26T01:32:29.327Z,23.4
2022-08-26T01:34:36.011Z,21.8
2022-08-26T01:35:33.546Z,20
2022-08-26T01:36:33.964Z,37.8
2022-08-26T01:37:39.004Z,30.3
2022-08-26T01:38:38.691Z,28.5
2022-08-26T01:39:39.313Z,31.2
2022-08-26T01:40:40.336Z,34.5
2022-08-26T01:41:40.142Z,35.3
2022-08-26T01:42:42.629Z,53.7
2022-08-26T01:43:45.071Z,29.2
2022-08-26T01:45:49.241Z,44
2022-08-26T01:46:50.730Z,51.4
2022-08-26T01:47:57.099Z,45.6
2022-08-26T01:48:52.381Z,40.2
2022-08-26T01:49:55.244Z,45.1
2022-08-26T01:50:53.825Z,37.6
2022-08-26T01:51:55.263Z,38.2
2022-08-26T01:52:55.172Z,30.1
2022-08-26T01:53:54.664Z,43.7
2022-08-26T01:54:55.905Z,34
2022-08-26T01:55:58.986Z,27.9
2022-08-26T01:56:56.530Z,39.4
2022-08-26T01:57:57.580Z,37
2022-08-26T01:59:01.170Z,46.2
2022-08-26T02:00:01.883Z,42
2022-08-26T02:00:59.997Z,40.1
2022-08-26T02:01:59.832Z,39.8
2022-08-26T02:03:00.912Z,43.3
2022-08-26T02:05:05.485Z,38.2
2022-08-26T02:06:09.156Z,37.1
2022-08-26T02:07:09.661Z,41.5
2022-08-26T02:08:08.059Z,48.8
2022-08-26T02:09:08.269Z,39.9
2022-08-26T02:10:09.206Z,43.8
2022-08-26T02:11:09.309Z,41.8
2022-08-26T02:12:12.188Z,43.5
2022-08-26T02:13:11.587Z,43.5
2022-08-26T02:15:15.812Z,42.5
2022-08-26T02:16:19.830Z,47.1
2022-08-26T02:17:18.372Z,49.7
2022-08-26T02:18:19.395Z,40.8
2022-08-26T02:19:26.993Z,44
2022-08-26T02:20:20.959Z,38.5
2022-08-26T02:21:20.021Z,42.3
2022-08-26T02:22:24.690Z,44.7
2022-08-26T02:23:24.505Z,40.7
2022-08-26T02:24:27.791Z,39.5
2022-08-26T02:26:27.543Z,37.9
2022-08-26T02:30:35.442Z,47.5
2022-08-26T02:31:35.690Z,39.2
2022-08-26T02:32:35.871Z,42.6
2022-08-26T02:33:36.093Z,42.1
2022-08-26T02:34:36.623Z,42.9
2022-08-26T02:35:37.842Z,42.2
2022-08-26T02:36:38.349Z,42.8
2022-08-26T02:37:37.747Z,37
2022-08-26T02:38:38.272Z,39.4
2022-08-26T02:39:40.847Z,39.3
2022-08-26T02:40:41.160Z,34.6
2022-08-26T02:41:45.156Z,38.3
2022-08-26T02:42:42.804Z,37.7
2022-08-26T02:43:43.315Z,37.1
2022-08-26T02:44:43.626Z,33.9
2022-08-26T02:45:44.143Z,37.7
2022-08-26T02:46:47.064Z,37.6
2022-08-26T02:47:44.776Z,33
2022-08-26T02:48:44.996Z,33.3
2022-08-26T02:49:47.198Z,32.2
2022-08-26T02:50:46.226Z,38.9
2022-08-26T02:51:46.850Z,34.9
2022-08-26T02:52:46.966Z,34.6
2022-08-26T02:53:46.973Z,33.1
2022-08-26T02:54:47.602Z,28.8
2022-08-26T02:55:47.696Z,37.9
2022-08-26T02:56:48.828Z,34.7
2022-08-26T02:57:48.654Z,28.9
2022-08-26T02:58:49.052Z,35.4
2022-08-26T02:59:49.358Z,36.8
2022-08-26T03:00:52.791Z,37.6
2022-08-26T03:01:51.449Z,37.1
2022-08-26T03:02:51.340Z,31.2
2022-08-26T03:03:52.022Z,30.8
2022-08-26T03:04:57.725Z,36.1
2022-08-26T03:05:54.933Z,34.5
2022-08-26T03:06:55.280Z,33.3
2022-08-26T03:07:54.940Z,38.1
2022-08-26T03:08:55.668Z,36.3
2022-08-26T03:09:55.894Z,38.5
2022-08-26T03:10:56.185Z,36.6
2022-08-26T03:11:56.610Z,30.9
2022-08-26T03:12:57.025Z,32.7
2022-08-26T03:13:57.851Z,36.7
2022-08-26T03:14:57.640Z,35.8
2022-08-26T03:16:00.237Z,35.9
2022-08-26T03:16:58.704Z,42.2
2022-08-26T03:17:58.893Z,36.3
2022-08-26T03:19:00.358Z,36.1
2022-08-26T03:19:59.950Z,32.9
2022-08-26T03:21:08.745Z,35.3
2022-08-26T03:22:01.173Z,35.4
2022-08-26T03:23:01.649Z,36
2022-08-26T03:24:02.104Z,35.1
2022-08-26T03:25:03.957Z,39.5
2022-08-26T03:26:03.252Z,38.1
2022-08-26T03:27:05.875Z,39.5
2022-08-26T03:28:04.798Z,32.8
2022-08-26T03:29:06.865Z,36.2
2022-08-26T03:30:07.583Z,26.7
2022-08-26T03:31:09.483Z,36.7
2022-08-26T03:32:09.645Z,31.8
2022-08-26T03:33:10.891Z,33.1
2022-08-26T03:34:11.293Z,46
2022-08-26T03:35:11.601Z,34.7
2022-08-26T03:36:11.311Z,39.6
2022-08-26T03:37:11.622Z,33
2022-08-26T03:38:12.035Z,31
2022-08-26T03:39:13.482Z,35.6
2022-08-26T03:40:13.224Z,35.4
2022-08-26T03:41:13.279Z,38.3
2022-08-26T03:42:13.390Z,39.5
2022-08-26T03:43:15.238Z,35
2022-08-26T03:44:14.326Z,35.7
2022-08-26T03:45:15.971Z,33.6
2022-08-26T03:46:15.401Z,33.8
2022-08-26T03:47:15.483Z,37.1
2022-08-26T03:48:15.791Z,33.3
2022-08-26T03:49:16.100Z,37.4
2022-08-26T03:50:22.650Z,35.3
2022-08-26T03:51:20.619Z,36.8
2022-08-26T03:52:21.039Z,36.7
2022-08-26T03:53:21.359Z,42.1
2022-08-26T03:54:21.690Z,57.1
2022-08-26T03:55:27.410Z,43.5
2022-08-26T03:56:24.963Z,50.7
2022-08-26T03:57:25.172Z,42
2022-08-26T03:58:25.383Z,42.9
2022-08-26T03:59:26.302Z,38.5
2022-08-26T04:00:26.220Z,37
2022-08-26T04:01:27.916Z,34.2
2022-08-26T04:02:27.695Z,37.3
2022-08-26T04:03:27.925Z,36.1
2022-08-26T04:04:27.763Z,37.9
2022-08-26T04:05:28.326Z,33.1
2022-08-26T04:07:28.823Z,30.7
2022-08-26T04:08:29.743Z,30.5
2022-08-26T04:09:29.961Z,41.5
2022-08-26T04:10:30.467Z,36
2022-08-26T04:11:34.144Z,32.7
2022-08-26T04:12:32.840Z,39.9
2022-08-26T04:13:33.360Z,30.2
2022-08-26T04:14:33.594Z,33.7
2022-08-26T04:15:33.922Z,37.5
2022-08-26T04:16:35.215Z,40.5
2022-08-26T04:17:34.924Z,33.7
2022-08-26T04:18:37.264Z,28.8
2022-08-26T04:19:35.469Z,32.5
2022-08-26T04:20:36.376Z,32
2022-08-26T04:21:36.384Z,31
2022-08-26T04:22:36.702Z,28.1
2022-08-26T04:23:47.323Z,28.2
2022-08-26T04:24:40.403Z,29.8
2022-08-26T04:25:41.022Z,29.2
2022-08-26T04:26:42.581Z,29.6
2022-08-26T04:27:41.854Z,30.3
2022-08-26T04:28:42.160Z,32.7
2022-08-26T04:29:42.472Z,55.9
2022-08-26T04:30:42.792Z,32.5
2022-08-26T04:31:43.261Z,29.1
2022-08-26T04:32:43.643Z,31.9
2022-08-26T04:33:47.444Z,31.9
2022-08-26T04:34:47.321Z,31.2
2022-08-26T04:35:48.272Z,31.2
2022-08-26T04:36:48.047Z,29.5
2022-08-26T04:37:48.566Z,30.4
2022-08-26T04:38:48.779Z,29.6
2022-08-26T04:39:53.456Z,24.4
2022-08-26T04:40:50.862Z,25.6
2022-08-26T04:41:51.370Z,26.5
2022-08-26T04:42:51.689Z,29.2
2022-08-26T04:43:52.406Z,26.6
2022-08-26T04:44:52.499Z,24.6
2022-08-26T04:45:53.843Z,28.4
2022-08-26T04:46:54.337Z,24.4
2022-08-26T04:47:55.600Z,27.5
2022-08-26T04:48:54.375Z,26.7
2022-08-26T04:49:57.455Z,22.9
2022-08-26T04:50:55.209Z,26.5
2022-08-26T04:51:55.419Z,26.2
2022-08-26T04:52:55.760Z,25.5
2022-08-26T04:53:57.800Z,25.5
2022-08-26T04:54:56.689Z,27.7
2022-08-26T04:55:57.089Z,23.6
2022-08-26T04:56:57.380Z,21.6
2022-08-26T04:57:58.022Z,22.4
2022-08-26T04:58:58.443Z,25
2022-08-26T04:59:58.545Z,27.3
2022-08-26T05:00:58.995Z,21.6
2022-08-26T05:01:59.335Z,25.5
2022-08-26T05:02:59.790Z,23.8
2022-08-26T05:04:01.382Z,22.7
2022-08-26T05:05:02.972Z,25.2
2022-08-26T05:06:05.363Z,26.1
2022-08-26T05:07:03.812Z,20.5
2022-08-26T05:08:04.225Z,20.2
2022-08-26T05:09:04.538Z,22.4
2022-08-26T05:10:05.566Z,22.7
2022-08-26T05:11:07.213Z,22
2022-08-26T05:12:07.629Z,25.9
2022-08-26T05:13:11.108Z,24.9
2022-08-26T05:14:09.758Z,23.1
2022-08-26T05:15:10.923Z,24.4
2022-08-26T05:16:12.723Z,24
2022-08-26T05:17:10.838Z,20.7
2022-08-26T05:18:14.535Z,19.9
2022-08-26T05:19:12.905Z,21.2
2022-08-26T05:20:13.321Z,29
2022-08-26T05:21:27.660Z,30.2
2022-08-26T05:22:15.280Z,21.6
2022-08-26T05:23:16.571Z,22.9
2022-08-26T05:24:17.138Z,21.7
2022-08-26T05:25:16.830Z,24.4
2022-08-26T05:26:17.857Z,20.3
2022-08-26T05:27:20.629Z,22.7
2022-08-26T05:28:22.068Z,24.4
2022-08-26T05:29:21.366Z,24.8
2022-08-26T05:30:21.983Z,25.7
2022-08-26T05:31:31.052Z,21.9
2022-08-26T05:32:23.630Z,23
2022-08-26T05:33:24.563Z,20.6
2022-08-26T05:34:25.753Z,30.6
2022-08-26T05:35:29.284Z,24.9
2022-08-26T05:36:30.523Z,25.4
2022-08-26T05:37:29.301Z,22.8
2022-08-26T05:38:30.254Z,21.3
2022-08-26T05:39:32.687Z,20
2022-08-26T05:40:35.917Z,18.8
2022-08-26T05:41:38.442Z,23.7
2022-08-26T05:42:36.322Z,21.6
2022-08-26T05:43:36.406Z,16
2022-08-26T05:44:55.332Z,17.5
2022-08-26T05:46:44.093Z,17.4
2022-08-26T05:47:43.211Z,18.4
2022-08-26T05:48:44.347Z,17.6
2022-08-26T05:49:51.445Z,15.6
2022-08-26T05:50:47.507Z,18.5
2022-08-26T05:51:45.975Z,19.6
2022-08-26T05:52:45.281Z,15.9
2022-08-26T05:53:54.567Z,18.8
2022-08-26T05:54:47.943Z,16.3
2022-08-26T05:55:52.972Z,14.4
2022-08-26T05:56:53.895Z,14.6
2022-08-26T05:57:51.135Z,18.5
2022-08-26T05:58:51.767Z,14
2022-08-26T05:59:51.977Z,17.7
2022-08-26T06:01:55.805Z,14.3
2022-08-26T06:02:56.173Z,11.4
2022-08-26T06:04:02.127Z,14
2022-08-26T06:04:59.892Z,15.3
2022-08-26T06:06:10.755Z,10.8
2022-08-26T06:07:03.344Z,17.5
2022-08-26T06:08:04.003Z,13.9
2022-08-26T06:09:06.162Z,11.2
2022-08-26T06:10:30.911Z,13.6
2022-08-26T06:11:18.607Z,14.6
2022-08-26T06:12:11.323Z,12.8
2022-08-26T06:13:12.128Z,13.5
2022-08-26T06:14:11.844Z,8.9
2022-08-26T06:15:12.458Z,11.4
2022-08-26T06:16:16.020Z,11.4
2022-08-26T06:17:14.001Z,10.2
2022-08-26T06:18:16.668Z,10.8
2022-08-26T06:19:15.455Z,9.9
2022-08-26T06:20:15.143Z,10.2
2022-08-26T06:22:21.895Z,11.4
2022-08-26T06:23:21.204Z,9.9
2022-08-26T06:24:21.420Z,12.5
2022-08-26T06:25:24.726Z,26.8
2022-08-26T06:26:25.219Z,13.1
2022-08-26T06:27:28.351Z,16.8
2022-08-26T06:28:29.951Z,11.3
2022-08-26T06:29:32.819Z,13.1
2022-08-26T06:30:30.365Z,10.4
2022-08-26T06:31:32.955Z,12.3
2022-08-26T06:32:30.998Z,10.4
2022-08-26T06:33:31.307Z,9.3
2022-08-26T06:34:32.343Z,10.5
2022-08-26T06:35:40.342Z,9.2
2022-08-26T06:36:34.704Z,9.1
2022-08-26T06:37:34.094Z,8.6
2022-08-26T06:38:34.727Z,9.5
2022-08-26T06:39:35.033Z,10.8
2022-08-26T06:40:42.623Z,8.2
2022-08-26T06:41:39.079Z,8.9
2022-08-26T06:42:41.098Z,9.5
2022-08-26T06:43:40.490Z,9.4
2022-08-26T06:44:41.188Z,14
2022-08-26T06:45:41.423Z,18.9
2022-08-26T06:46:42.510Z,12.9
2022-08-26T06:47:42.355Z,10.9
2022-08-26T06:48:43.084Z,11.5
2022-08-26T06:49:44.331Z,14.9
2022-08-26T06:50:43.709Z,8.7
2022-08-26T06:51:43.927Z,11.1
2022-08-26T06:52:44.181Z,10.1
2022-08-26T06:53:46.398Z,12
2022-08-26T06:54:44.961Z,10.7
2022-08-26T06:55:46.403Z,11.3
2022-08-26T06:56:45.590Z,9.9
2022-08-26T06:57:46.312Z,10
2022-08-26T06:58:46.832Z,11.6
2022-08-26T06:59:46.834Z,8.6
2022-08-26T07:00:47.645Z,11.4
2022-08-26T07:01:47.581Z,10.6
2022-08-26T07:02:48.215Z,8.5
2022-08-26T07:03:50.654Z,9
2022-08-26T07:04:51.063Z,11.4
2022-08-26T07:05:49.342Z,8.9
2022-08-26T07:06:53.514Z,10.7
2022-08-26T07:07:51.395Z,7.8
2022-08-26T07:08:53.865Z,9.2
2022-08-26T07:09:52.743Z,9.4
2022-08-26T07:10:52.860Z,10.2
2022-08-26T07:11:54.200Z,8.8
2022-08-26T07:12:54.093Z,9.3
2022-08-26T07:13:54.612Z,8.4
2022-08-26T07:14:54.923Z,10.8
2022-08-26T07:15:57.260Z,10.7
2022-08-26T07:16:55.664Z,9.8
2022-08-26T07:17:55.971Z,8.7
2022-08-26T07:18:57.416Z,9.7
2022-08-26T07:19:57.015Z,8.9
2022-08-26T07:20:57.107Z,8.1
2022-08-26T07:21:57.938Z,7.5
2022-08-26T07:22:57.851Z,8.8
2022-08-26T07:24:01.436Z,8.8
2022-08-26T07:24:59.289Z,11.3
2022-08-26T07:26:03.809Z,9.7
2022-08-26T07:27:05.439Z,10.7
2022-08-26T07:28:03.927Z,8.5
2022-08-26T07:29:04.030Z,51.1
2022-08-26T07:30:06.595Z,12.3
2022-08-26T07:31:09.818Z,8.9
2022-08-26T07:32:08.763Z,8.3
2022-08-26T07:33:08.125Z,13.3
2022-08-26T07:34:08.162Z,9.6
2022-08-26T07:35:08.980Z,12.1
2022-08-26T07:36:10.725Z,10.3
2022-08-26T07:37:09.623Z,9.4
2022-08-26T07:38:09.924Z,9.3
2022-08-26T07:39:10.343Z,8.5
2022-08-26T07:40:10.697Z,8.8
2022-08-26T07:41:12.707Z,11.2
2022-08-26T07:42:13.736Z,8.3
2022-08-26T07:43:11.596Z,12.4
2022-08-26T07:44:12.112Z,8.3
2022-08-26T07:45:12.438Z,8.4
2022-08-26T07:46:16.441Z,9.4
2022-08-26T07:47:25.703Z,9.9
2022-08-26T07:48:18.899Z,9.2
2022-08-26T07:49:19.379Z,12.2
2022-08-26T07:50:19.798Z,11.7
2022-08-26T07:51:21.479Z,10.8
2022-08-26T07:52:25.346Z,10.8
2022-08-26T07:53:24.460Z,11.8
2022-08-26T07:54:27.035Z,12.6
2022-08-26T07:55:24.791Z,14.3
2022-08-26T07:56:25.811Z,10.6
2022-08-26T07:57:26.843Z,10.3
2022-08-26T07:58:26.131Z,13.9
2022-08-26T07:59:26.452Z,12
2022-08-26T08:00:26.880Z,11.5
2022-08-26T08:01:27.944Z,9.2
2022-08-26T08:02:28.823Z,11.8
2022-08-26T08:03:28.524Z,13.2
2022-08-26T08:04:28.532Z,10.9
2022-08-26T08:05:33.372Z,12.5
2022-08-26T08:06:31.511Z,11.5
2022-08-26T08:07:44.461Z,11.3
2022-08-26T08:08:32.957Z,10.4
2022-08-26T08:09:33.279Z,9.8
2022-08-26T08:10:35.018Z,9.2
2022-08-26T08:11:34.305Z,7.9
2022-08-26T08:12:34.722Z,12.2
2022-08-26T08:13:34.933Z,9.7
2022-08-26T08:14:35.663Z,8.6
2022-08-26T08:15:36.279Z,10.9
2022-08-26T08:16:39.129Z,10.4
2022-08-26T08:17:41.217Z,10
2022-08-26T08:18:40.561Z,9.5
2022-08-26T08:19:41.125Z,7.7
2022-08-26T08:20:44.665Z,10.8
2022-08-26T08:21:45.124Z,11
2022-08-26T08:22:45.641Z,8.5
2022-08-26T08:23:45.962Z,10.1
2022-08-26T08:24:46.166Z,11.1
2022-08-26T08:25:47.916Z,8.3
2022-08-26T08:26:48.024Z,8.2
2022-08-26T08:27:49.054Z,11.7
2022-08-26T08:28:49.368Z,9
2022-08-26T08:29:49.268Z,8.6
2022-08-26T08:30:49.620Z,14.2
2022-08-26T08:31:56.983Z,10.7
2022-08-26T08:32:51.855Z,10.1
2022-08-26T08:33:51.043Z,12.4
2022-08-26T08:34:51.726Z,13.7
2022-08-26T08:35:52.688Z,13.2
2022-08-26T08:36:53.305Z,13.1
2022-08-26T08:37:53.117Z,10.8
2022-08-26T08:38:52.710Z,11.5
2022-08-26T08:39:53.156Z,12.4
2022-08-26T08:40:53.848Z,10.3
2022-08-26T08:43:11.280Z,11.7
2022-08-26T08:44:01.549Z,11.6
2022-08-26T08:45:05.650Z,7.5
2022-08-26T08:46:12.907Z,10.1
2022-08-26T08:47:18.068Z,8.1
2022-08-26T08:49:13.983Z,7.6
2022-08-26T08:54:21.986Z,7.1
2022-08-26T08:55:20.464Z,8.3
2022-08-26T08:59:34.105Z,10.7
2022-08-26T09:05:48.840Z,8.5
2022-08-26T09:06:48.934Z,7.9
2022-08-26T09:07:55.771Z,8.3
2022-08-26T09:08:50.763Z,8.2
2022-08-26T09:09:54.715Z,10.3
2022-08-26T09:10:58.455Z,10.4
2022-08-26T09:11:56.721Z,8.2
2022-08-26T09:12:57.163Z,8.1
2022-08-26T09:13:57.151Z,8.9
2022-08-26T09:15:05.041Z,6.7
2022-08-26T09:21:15.023Z,11.3
2022-08-26T09:23:15.948Z,6.4
2022-08-26T09:24:15.536Z,6.5
2022-08-26T09:25:16.478Z,6.9
2022-08-26T09:26:27.174Z,9.8
2022-08-26T09:28:25.298Z,6.1
2022-08-26T09:31:31.754Z,7
2022-08-26T09:32:29.413Z,10.1
2022-08-26T09:33:32.593Z,6.7
2022-08-26T09:34:31.170Z,11.5
2022-08-26T09:35:43.259Z,8.1
2022-08-26T09:38:34.577Z,6.8
2022-08-26T09:39:38.209Z,7
2022-08-26T09:40:36.697Z,8.2
2022-08-26T09:41:36.019Z,7.3
2022-08-26T09:42:36.542Z,7.4
2022-08-26T09:43:36.756Z,8.2
2022-08-26T09:45:40.919Z,6.6
2022-08-26T09:46:47.027Z,6.4
2022-08-26T09:48:51.805Z,9.6
2022-08-26T09:49:59.960Z,7.6
2022-08-26T09:51:00.870Z,7.6
2022-08-26T09:59:11.667Z,8.2
2022-08-26T10:04:24.264Z,7.8
2022-08-26T10:06:26.790Z,9
2022-08-26T10:08:41.141Z,7.4
2022-08-26T10:09:41.123Z,8.2
2022-08-26T10:10:40.934Z,10.8
2022-08-26T10:11:52.101Z,12
2022-08-26T10:20:23.331Z,7.4
2022-08-26T10:21:07.640Z,7.5
2022-08-26T10:23:18.803Z,9.2
2022-08-26T10:24:15.937Z,7.6
2022-08-26T10:25:17.905Z,8.2
2022-08-26T10:33:34.632Z,7.8
2022-08-26T10:34:35.045Z,7.4
2022-08-26T10:37:48.877Z,6.9
2022-08-26T10:38:41.543Z,6.8
2022-08-26T10:41:53.430Z,8.1
2022-08-26T10:43:08.486Z,6.1
2022-08-26T10:48:12.720Z,9.9
2022-08-26T10:49:13.028Z,7
2022-08-26T10:50:11.286Z,6.6
2022-08-26T10:51:15.194Z,8.4
2022-08-26T11:05:44.365Z,6.6
2022-08-26T11:06:44.674Z,8.2
2022-08-26T11:08:51.652Z,8.8
2022-08-26T11:09:51.245Z,5.4
2022-08-26T11:10:59.267Z,6.2
2022-08-26T11:11:51.975Z,6.9
2022-08-26T11:13:00.701Z,6.9
2022-08-26T11:14:04.787Z,8.6
2022-08-26T11:14:58.682Z,6.3
2022-08-26T11:15:58.664Z,10.4
2022-08-26T11:16:59.748Z,8
2022-08-26T11:18:05.329Z,5.3
2022-08-26T11:19:03.399Z,9.1
2022-08-26T11:20:08.588Z,6.2
2022-08-26T11:25:30.066Z,6.2
2022-08-26T11:26:35.831Z,6.1
2022-08-26T11:30:43.502Z,8.4
2022-08-26T11:34:56.839Z,6.3
2022-08-26T11:35:54.386Z,6.2
2022-08-26T11:36:59.004Z,6.3
2022-08-26T11:38:04.231Z,7.8
2022-08-26T11:38:57.884Z,5.2
2022-08-26T11:39:57.781Z,6.3
2022-08-26T11:41:09.887Z,7.3
2022-08-26T11:44:09.097Z,5.7
2022-08-26T11:46:13.046Z,5.3
2022-08-26T11:47:16.062Z,5.8
2022-08-26T11:48:18.132Z,7
2022-08-26T11:49:17.617Z,6.1
2022-08-26T11:50:22.535Z,5.1
2022-08-26T11:51:24.697Z,5.8
2022-08-26T11:52:22.757Z,4.9
2022-08-26T11:53:23.377Z,4.9
2022-08-26T11:54:35.190Z,6.2
2022-08-26T11:55:29.842Z,5.4
2022-08-26T11:56:32.721Z,4.5
2022-08-26T11:57:33.755Z,6.4
2022-08-26T11:58:32.010Z,5.1
2022-08-26T11:59:36.939Z,4.4
2022-08-26T12:02:40.842Z,6.8
2022-08-26T12:04:45.639Z,5.7
2022-08-26T12:05:46.800Z,5.5
2022-08-26T12:06:50.231Z,5.8
2022-08-26T12:07:53.059Z,6.2
2022-08-26T12:08:52.054Z,4.8
2022-08-26T12:10:00.437Z,5.8
2022-08-26T12:12:59.242Z,4.2
2022-08-26T12:14:00.784Z,4.7
2022-08-26T12:16:01.208Z,6.1
2022-08-26T12:19:01.842Z,5.5
2022-08-26T12:20:02.368Z,4.4
2022-08-26T12:23:04.437Z,3.6
2022-08-26T12:24:04.840Z,6.1
2022-08-26T12:25:08.132Z,10.2
2022-08-26T12:28:11.528Z,5.6
2022-08-26T12:29:27.266Z,5
2022-08-26T12:30:26.148Z,8.8
2022-08-26T12:32:24.770Z,4.1
2022-08-26T12:33:24.473Z,6.2
2022-08-26T12:34:22.834Z,4.7
2022-08-26T12:35:23.467Z,5.3
2022-08-26T12:37:27.051Z,6.1
2022-08-26T12:38:27.060Z,5.8
2022-08-26T12:39:36.287Z,5.3
2022-08-26T12:40:41.008Z,5.8
2022-08-26T12:46:44.710Z,4.5
2022-08-26T12:47:46.174Z,4.7
2022-08-26T12:48:49.254Z,5.1
2022-08-26T12:49:47.000Z,4
2022-08-26T12:50:49.975Z,4.5
2022-08-26T12:51:50.497Z,5.6
2022-08-26T12:53:52.862Z,4
2022-08-26T12:54:56.892Z,5.4
2022-08-26T12:56:00.553Z,3.2
2022-08-26T12:57:08.962Z,4.7
2022-08-26T13:06:29.000Z,5
2022-08-26T13:07:27.246Z,4.5
2022-08-26T13:08:28.389Z,2.8
2022-08-26T13:09:31.160Z,4.9
2022-08-26T13:12:35.692Z,3.4
2022-08-26T13:13:34.350Z,4.7
2022-08-26T13:14:34.578Z,3.6
2022-08-26T13:15:34.980Z,5.8
2022-08-26T13:16:36.498Z,3.7
2022-08-26T13:17:35.926Z,4.2
2022-08-26T13:18:36.035Z,5.3
2022-08-26T13:19:36.547Z,6.5
2022-08-26T13:22:45.085Z,5
2022-08-26T13:23:50.404Z,5.8
2022-08-26T13:24:50.508Z,4
2022-08-26T13:25:51.128Z,5
2022-08-26T13:26:50.832Z,3
2022-08-26T13:27:50.731Z,3.6
2022-08-26T13:29:01.194Z,19.6
2022-08-26T13:29:55.684Z,7.5
2022-08-26T13:30:55.568Z,5.8
2022-08-26T13:31:56.373Z,5.2
2022-08-26T13:32:59.985Z,4.3
2022-08-26T13:33:59.587Z,5.6
2022-08-26T13:35:00.196Z,3.4
2022-08-26T13:36:03.991Z,3.1
2022-08-26T13:37:04.005Z,5.1
2022-08-26T13:38:04.214Z,5
2022-08-26T13:39:05.303Z,5.8
2022-08-26T13:40:06.649Z,4.6
2022-08-26T13:41:05.455Z,5.5
2022-08-26T13:42:05.666Z,2.8
2022-08-26T13:43:06.018Z,6.6
2022-08-26T13:44:06.706Z,3.3
2022-08-26T13:45:07.228Z,4
2022-08-26T13:46:06.725Z,3.6
2022-08-26T13:47:07.570Z,5.3
2022-08-26T13:48:08.074Z,6.5
2022-08-26T13:49:07.894Z,30
2022-08-26T13:50:08.824Z,5.7
2022-08-26T13:51:08.934Z,8.9
2022-08-26T13:52:09.021Z,7.4
2022-08-26T13:53:09.448Z,3.6
2022-08-26T13:54:09.436Z,7.2
2022-08-26T13:55:10.470Z,5.9
2022-08-26T13:56:11.125Z,3.8
2022-08-26T13:57:10.590Z,4.4
2022-08-26T13:58:11.825Z,4.7
2022-08-26T13:59:11.113Z,3
2022-08-26T14:00:12.770Z,4.7
2022-08-26T14:01:12.290Z,11.9
2022-08-26T14:02:12.456Z,5.7
2022-08-26T14:03:13.617Z,5.1
2022-08-26T14:04:13.190Z,5.5
2022-08-26T14:05:13.518Z,9.6
2022-08-26T14:06:14.129Z,6.4
2022-08-26T14:07:13.928Z,4.8
2022-08-26T14:08:14.548Z,10.8
2022-08-26T14:09:14.656Z,4.8
2022-08-26T14:10:14.860Z,3.8
2022-08-26T14:11:15.700Z,4.8
2022-08-26T14:12:15.698Z,4.4
2022-08-26T14:13:15.928Z,4.1
2022-08-26T14:14:16.837Z,5.8
2022-08-26T14:15:17.774Z,5
2022-08-26T14:16:25.828Z,4.6
2022-08-26T14:17:23.204Z,3.3
2022-08-26T14:18:28.128Z,3.2
2022-08-26T14:19:21.065Z,5.7
2022-08-26T14:20:29.169Z,4.7
2022-08-26T14:21:35.542Z,5
2022-08-26T14:22:28.358Z,3.1
2022-08-26T14:23:28.681Z,3.8
2022-08-26T14:24:29.810Z,4.2
2022-08-26T14:25:30.230Z,5.9
2022-08-26T14:26:30.123Z,3.3
2022-08-26T14:27:29.935Z,5.4
2022-08-26T14:28:30.349Z,6.5
2022-08-26T14:29:30.570Z,3.1
2022-08-26T14:30:32.198Z,3.9
2022-08-26T14:31:32.491Z,4.3
2022-08-26T14:32:31.912Z,8.2
2022-08-26T14:33:34.371Z,4
2022-08-26T14:34:32.650Z,2.5
2022-08-26T14:35:32.644Z,3.9
2022-08-26T14:36:33.586Z,4.1
2022-08-26T14:37:34.091Z,6.8
2022-08-26T14:38:33.899Z,3.9
2022-08-26T14:39:34.830Z,3.6
2022-08-26T14:40:37.536Z,4.9
2022-08-26T14:41:39.549Z,2.7
2022-08-26T14:42:37.295Z,4.5
2022-08-26T14:43:41.512Z,5
2022-08-26T14:44:43.688Z,3.6
2022-08-26T14:45:44.122Z,6
2022-08-26T14:46:45.733Z,4.4
2022-08-26T14:47:46.148Z,3.7
2022-08-26T14:48:43.685Z,3.2
2022-08-26T14:49:44.008Z,5.4
2022-08-26T14:50:45.128Z,3
2022-08-26T14:51:44.935Z,6.5
2022-08-26T14:52:45.270Z,4.8
2022-08-26T14:53:45.548Z,5.6
2022-08-26T14:54:46.088Z,4.9
2022-08-26T14:55:46.593Z,3.7
2022-08-26T14:56:52.646Z,3.6
2022-08-26T14:57:50.401Z,3.5
2022-08-26T14:58:50.528Z,4
2022-08-26T14:59:50.929Z,3.9
2022-08-26T15:00:51.250Z,2.8
2022-08-26T15:01:52.123Z,3.3
2022-08-26T15:02:52.196Z,5
2022-08-26T15:03:52.489Z,4.7
2022-08-26T15:04:52.908Z,3.7
2022-08-26T15:05:53.252Z,4.2
2022-08-26T15:06:54.770Z,4.2
2022-08-26T15:07:53.538Z,5.6
2022-08-26T15:08:54.265Z,3
2022-08-26T15:09:54.267Z,4.1
2022-08-26T15:10:54.789Z,5.9
2022-08-26T15:11:55.303Z,3.6
2022-08-26T15:12:55.550Z,5.8
2022-08-26T15:13:55.728Z,5.3
2022-08-26T15:14:56.147Z,5.1
2022-08-26T15:15:56.742Z,6.6
2022-08-26T15:16:57.699Z,5.3
2022-08-26T15:17:57.308Z,4.9
2022-08-26T15:18:58.028Z,5.3
2022-08-26T15:19:57.817Z,4.5
2022-08-26T15:20:58.048Z,5.8
2022-08-26T15:21:58.554Z,5.7
2022-08-26T15:23:03.333Z,5.6
2022-08-26T15:23:59.290Z,5.9
2022-08-26T15:24:59.290Z,4
2022-08-26T15:25:59.709Z,4.5
2022-08-26T15:27:00.011Z,3.4
2022-08-26T15:28:00.134Z,3.5
2022-08-26T15:29:04.703Z,3.7
2022-08-26T15:31:08.196Z,4.4
2022-08-26T15:32:07.728Z,3.6
2022-08-26T15:33:15.253Z,5
2022-08-26T15:34:14.511Z,4.4
2022-08-26T15:35:09.722Z,3.9
2022-08-26T15:36:10.530Z,4.4
2022-08-26T15:37:10.032Z,2.9
2022-08-26T15:38:10.984Z,4.6
2022-08-26T15:39:11.356Z,4.1
2022-08-26T15:40:11.873Z,4.2
2022-08-26T15:41:11.172Z,4.4
2022-08-26T15:42:11.378Z,3.5
2022-08-26T15:43:27.695Z,4.9
2022-08-26T15:44:16.830Z,6.4
2022-08-26T15:45:25.922Z,3.4
2022-08-26T15:46:20.508Z,6.9
2022-08-26T15:47:19.731Z,4.8
2022-08-26T15:48:20.122Z,4.7
2022-08-26T15:49:20.123Z,3.5
2022-08-26T15:50:20.642Z,5.2
2022-08-26T15:51:32.448Z,5
2022-08-26T15:52:25.510Z,3.3
2022-08-26T15:53:26.302Z,5
2022-08-26T15:54:25.788Z,5.3
2022-08-26T15:55:26.410Z,4.3
2022-08-26T15:56:28.469Z,4.7
2022-08-26T15:57:26.832Z,5.9
2022-08-26T15:58:28.279Z,5.1
2022-08-26T15:59:27.459Z,6.1
2022-08-26T16:00:27.693Z,5.2
2022-08-26T16:01:29.106Z,4
2022-08-26T16:02:32.199Z,5.9
2022-08-26T16:03:30.368Z,3.1
2022-08-26T16:04:30.388Z,5.1
2022-08-26T16:05:30.558Z,5.8
2022-08-26T16:06:33.246Z,3.9
2022-08-26T16:07:31.947Z,3
2022-08-26T16:08:32.841Z,6.6
2022-08-26T16:09:34.596Z,5
2022-08-26T16:10:36.768Z,5
2022-08-26T16:11:35.856Z,4.2
2022-08-26T16:12:35.331Z,3.5
2022-08-26T16:13:40.067Z,5.3
2022-08-26T16:14:38.206Z,3.7
2022-08-26T16:15:39.085Z,5.3
2022-08-26T16:16:39.962Z,4.9
2022-08-26T16:17:38.652Z,4.7
2022-08-26T16:18:39.387Z,3.8